SBOSBO TPA / KTPA
Speedbird OnlineSpeedbird Online TPA / KTPA

Tampa International Airport
02:33 19.4°C

Location Tampa, United States
Latitude: 27.975500106811523
Longitude: -82.533203125
Web Wikipedia
Altitude 8 Meter / 26 Feet
Distance 7,123 KM / 4,426 Miles
from London.
Time Zone UTC -4 hours (America/New_York)
Codes IATA: TPA
ICAO: KTPA
Currency £1 equals USD 1.13
Runways
RunwayLength (m)Surface
01L3353Concrete
01R2530Partial
102133Partial
19L2530Partial
19R3353Concrete
282133Partial
Radio
TypeDescriptionFrequency
A/DAPP/DEP118.15
ATISATIS126.45
CLDCLNC DEL133.6
GNDGND121.7
TWRTWR119.5
UNICUNICOM122.95
Live ATC
METAR KTPA 060553Z 02004KT 10SM FEW050 20/14 A3005 RMK AO2 SLP177 T02000144 10239 20200 58001
TAF KTPA 060530Z 0606/0712 04004KT P6SM FEW050 FM061600 26006KT P6SM SCT040 SCT250 FM062100 31007KT P6SM FEW050 SCT250 FM070200 03003KT P6SM FEW250
Weather As Of 06 Oct 2022 02:33
Description Few clouds
Wind 9 km/h from North-East (50°)
Cloud Cover 20%
Precipitation Rain: none, Snow: none
Sunrise 07:25
Sunset 19:10
Lounges American Airlines Admirals Club, Main Terminal
Rotations During the last 90 days there were
84 flights from LGW
1 flights from MIA
83 flights to LGW
3 flights to MCO


© 2017-2022 Speedbird Online